Cynthiana, IN (47612)

8:29 AM CDT on August 27, 2016 (GMT -0500)
Westside | | Change Station

Elev 452 ft 38.10 °N, 87.62 °W | Updated 5 minutes ago

Scattered Clouds
Scattered Clouds
73.0 °F
Feels Like 73.0 °F
N
1.2
Wind Variable Wind from WSW
Gusts 2.5 mph

Today
High -- | Low -- °F
--% Chance of Precip.
Yesterday
High -- | Low -- °F
Precip. -- in
Pressure 30.09 in
Visibility 10.0 miles
Clouds Few 6000 ft
Scattered Clouds 12000 ft
Dew Point 73 °F
Humidity 100%
Rainfall 0.06 in
Snow Depth Not available.
6:16 AM 7:26 PM
Waning Crescent, 24% visible
METAR KEVV 271254Z 00000KT 10SM FEW060 SCT120 23/22 A3010 RMK AO2 LTG DSNT N AND NW SLP187 T02330217
Pressure 30.09 in
Visibility 10.0 miles
Clouds Few 6000 ft
Scattered Clouds 12000 ft
Dew Point 73 °F
Humidity 100%
Rainfall 0.06 in
Snow Depth Not available.
6:16 AM 7:26 PM
Waning Crescent, 24% visible
METAR KEVV 271254Z 00000KT 10SM FEW060 SCT120 23/22 A3010 RMK AO2 LTG DSNT N AND NW SLP187 T02330217

10-Day Weather Forecast

Almanac

Astronomy

Aug. 27, 2016 Rise Set
Actual Time
Civil Twilight
Nautical Twilight
Astronomical Twilight
Moon
Length of Visible Light
Length of Day
Tomorrow will be .
, % of the Moon is Illuminated

Today's Extremes

State Highs State Lows

Community

WunderPhotos

Upload Photos

1,935,337 photos uploaded!

WunderBlog® & News

Nearby

Air Quality

  Air Quality AQ Index Pollutant
Not available.

Snow Depth

Station Depth Elevation

Earthquake Activity

City Distance Mag. Time & Date
Minimum magnitude displayed is 2.5.

Coastal Water Temperatures

Place Temperature

Stations

Nearby Weather Stations

Station Location Temp. Windchill Dew Point Humidity Wind Precip. Elev Updated Type
                   

Watches & Warnings

There are currently no watches in effect.